sensor_id;sensor_type;location;lat;lon;timestamp;P1;durP1;ratioP1;P2;durP2;ratioP2
26838;SDS011;40088;51.214;6.786;2023-04-20T00:02:31;2.47;;;2.13;;
26838;SDS011;40088;51.214;6.786;2023-04-20T00:12:31;2.63;;;2.33;;
26838;SDS011;40088;51.214;6.786;2023-04-20T00:22:32;3.05;;;2.42;;
26838;SDS011;40088;51.214;6.786;2023-04-20T00:32:32;2.30;;;2.10;;
26838;SDS011;40088;51.214;6.786;2023-04-20T00:42:33;3.53;;;2.60;;
26838;SDS011;40088;51.214;6.786;2023-04-20T00:52:33;2.85;;;2.20;;
26838;SDS011;40088;51.214;6.786;2023-04-20T01:02:34;3.22;;;2.40;;
26838;SDS011;40088;51.214;6.786;2023-04-20T01:12:34;3.15;;;2.38;;
26838;SDS011;40088;51.214;6.786;2023-04-20T01:22:42;2.15;;;1.90;;
26838;SDS011;40088;51.214;6.786;2023-04-20T01:32:45;2.63;;;2.03;;
26838;SDS011;40088;51.214;6.786;2023-04-20T01:42:46;2.95;;;2.35;;
26838;SDS011;40088;51.214;6.786;2023-04-20T01:52:46;3.90;;;2.60;;
26838;SDS011;40088;51.214;6.786;2023-04-20T02:02:46;4.70;;;2.58;;
26838;SDS011;40088;51.214;6.786;2023-04-20T02:12:47;2.95;;;2.40;;
26838;SDS011;40088;51.214;6.786;2023-04-20T02:22:48;5.85;;;2.30;;
26838;SDS011;40088;51.214;6.786;2023-04-20T02:32:49;2.63;;;2.15;;
26838;SDS011;40088;51.214;6.786;2023-04-20T02:42:49;3.47;;;2.13;;
26838;SDS011;40088;51.214;6.786;2023-04-20T02:52:49;3.25;;;2.25;;
26838;SDS011;40088;51.214;6.786;2023-04-20T03:02:50;3.20;;;2.38;;
26838;SDS011;40088;51.214;6.786;2023-04-20T03:12:51;2.33;;;2.13;;
26838;SDS011;40088;51.214;6.786;2023-04-20T03:22:51;2.13;;;1.92;;
26838;SDS011;40088;51.214;6.786;2023-04-20T03:32:51;2.50;;;2.00;;
26838;SDS011;40088;51.214;6.786;2023-04-20T03:42:51;3.47;;;2.35;;
26838;SDS011;40088;51.214;6.786;2023-04-20T03:52:52;2.65;;;2.00;;
26838;SDS011;40088;51.214;6.786;2023-04-20T04:02:52;4.65;;;2.00;;
26838;SDS011;40088;51.214;6.786;2023-04-20T04:12:52;3.88;;;2.10;;
26838;SDS011;40088;51.214;6.786;2023-04-20T04:22:53;2.17;;;1.98;;
26838;SDS011;40088;51.214;6.786;2023-04-20T04:32:53;2.65;;;2.00;;
26838;SDS011;40088;51.214;6.786;2023-04-20T04:42:54;2.47;;;2.10;;
26838;SDS011;40088;51.214;6.786;2023-04-20T04:52:54;2.80;;;1.98;;
26838;SDS011;40088;51.214;6.786;2023-04-20T05:02:54;2.80;;;2.17;;
26838;SDS011;40088;51.214;6.786;2023-04-20T05:12:55;2.67;;;1.85;;
26838;SDS011;40088;51.214;6.786;2023-04-20T05:22:57;3.58;;;2.38;;
26838;SDS011;40088;51.214;6.786;2023-04-20T05:32:57;3.15;;;2.28;;
26838;SDS011;40088;51.214;6.786;2023-04-20T05:42:58;4.20;;;2.30;;
26838;SDS011;40088;51.214;6.786;2023-04-20T05:52:58;3.33;;;2.33;;
26838;SDS011;40088;51.214;6.786;2023-04-20T06:02:58;2.92;;;2.50;;
26838;SDS011;40088;51.214;6.786;2023-04-20T06:12:58;3.95;;;2.10;;
26838;SDS011;40088;51.214;6.786;2023-04-20T06:22:59;4.05;;;2.42;;
26838;SDS011;40088;51.214;6.786;2023-04-20T06:32:59;2.65;;;2.40;;
26838;SDS011;40088;51.214;6.786;2023-04-20T06:43:00;4.53;;;2.67;;
26838;SDS011;40088;51.214;6.786;2023-04-20T06:53:01;3.53;;;2.55;;
26838;SDS011;40088;51.214;6.786;2023-04-20T07:03:03;2.90;;;2.53;;
26838;SDS011;40088;51.214;6.786;2023-04-20T07:13:03;2.97;;;2.50;;
26838;SDS011;40088;51.214;6.786;2023-04-20T07:23:04;2.47;;;2.20;;
26838;SDS011;40088;51.214;6.786;2023-04-20T07:33:04;2.60;;;2.40;;
26838;SDS011;40088;51.214;6.786;2023-04-20T07:43:04;2.35;;;2.15;;
26838;SDS011;40088;51.214;6.786;2023-04-20T07:53:05;3.05;;;2.70;;
26838;SDS011;40088;51.214;6.786;2023-04-20T08:03:06;3.58;;;2.35;;
26838;SDS011;40088;51.214;6.786;2023-04-20T08:13:06;3.08;;;2.22;;
26838;SDS011;40088;51.214;6.786;2023-04-20T08:23:06;2.67;;;1.95;;
26838;SDS011;40088;51.214;6.786;2023-04-20T08:33:06;2.92;;;1.92;;
26838;SDS011;40088;51.214;6.786;2023-04-20T08:43:07;2.83;;;2.08;;
26838;SDS011;40088;51.214;6.786;2023-04-20T08:53:07;2.20;;;2.00;;
26838;SDS011;40088;51.214;6.786;2023-04-20T09:03:08;2.50;;;2.30;;
26838;SDS011;40088;51.214;6.786;2023-04-20T09:13:20;2.15;;;1.95;;
26838;SDS011;40088;51.214;6.786;2023-04-20T09:23:21;3.08;;;2.20;;
26838;SDS011;40088;51.214;6.786;2023-04-20T09:33:26;2.85;;;2.15;;
26838;SDS011;40088;51.214;6.786;2023-04-20T09:43:28;2.92;;;2.20;;
26838;SDS011;40088;51.214;6.786;2023-04-20T09:53:31;3.90;;;2.60;;
26838;SDS011;40088;51.214;6.786;2023-04-20T10:03:33;2.53;;;2.33;;
26838;SDS011;40088;51.214;6.786;2023-04-20T10:13:33;2.53;;;2.27;;
26838;SDS011;40088;51.214;6.786;2023-04-20T10:23:34;2.45;;;2.25;;
26838;SDS011;40088;51.214;6.786;2023-04-20T10:33:35;2.40;;;2.20;;
26838;SDS011;40088;51.214;6.786;2023-04-20T10:43:35;3.38;;;2.00;;
26838;SDS011;40088;51.214;6.786;2023-04-20T10:53:41;2.35;;;1.90;;
26838;SDS011;40088;51.214;6.786;2023-04-20T11:03:41;2.40;;;2.20;;
26838;SDS011;40088;51.214;6.786;2023-04-20T11:13:41;2.00;;;1.80;;
26838;SDS011;40088;51.214;6.786;2023-04-20T11:23:42;2.65;;;2.00;;
26838;SDS011;40088;51.214;6.786;2023-04-20T11:33:43;1.88;;;1.60;;
26838;SDS011;40088;51.214;6.786;2023-04-20T11:43:44;2.05;;;1.73;;
26838;SDS011;40088;51.214;6.786;2023-04-20T11:53:45;1.80;;;1.67;;
26838;SDS011;40088;51.214;6.786;2023-04-20T12:03:45;2.20;;;1.70;;
26838;SDS011;40088;51.214;6.786;2023-04-20T12:13:45;2.05;;;1.73;;
26838;SDS011;40088;51.214;6.786;2023-04-20T12:23:46;1.92;;;1.60;;
26838;SDS011;40088;51.214;6.786;2023-04-20T12:33:48;1.90;;;1.65;;
26838;SDS011;40088;51.214;6.786;2023-04-20T12:43:49;4.25;;;1.63;;
26838;SDS011;40088;51.214;6.786;2023-04-20T12:53:49;1.77;;;1.63;;
26838;SDS011;40088;51.214;6.786;2023-04-20T13:03:50;1.58;;;1.48;;
26838;SDS011;40088;51.214;6.786;2023-04-20T13:13:51;1.60;;;1.50;;
26838;SDS011;40088;51.214;6.786;2023-04-20T13:23:51;1.75;;;1.50;;
26838;SDS011;40088;51.214;6.786;2023-04-20T13:33:51;1.65;;;1.55;;
26838;SDS011;40088;51.214;6.786;2023-04-20T13:43:56;1.38;;;1.27;;
26838;SDS011;40088;51.214;6.786;2023-04-20T13:53:57;1.77;;;1.63;;
26838;SDS011;40088;51.214;6.786;2023-04-20T14:03:57;1.70;;;1.60;;
26838;SDS011;40088;51.214;6.786;2023-04-20T14:13:57;2.03;;;1.60;;
26838;SDS011;40088;51.214;6.786;2023-04-20T14:23:58;4.18;;;2.00;;
26838;SDS011;40088;51.214;6.786;2023-04-20T14:33:58;2.10;;;1.90;;
26838;SDS011;40088;51.214;6.786;2023-04-20T14:54:55;3.20;;;1.77;;
26838;SDS011;40088;51.214;6.786;2023-04-20T15:04:56;2.90;;;1.95;;
26838;SDS011;40088;51.214;6.786;2023-04-20T15:14:57;3.35;;;2.08;;
26838;SDS011;40088;51.214;6.786;2023-04-20T15:24:57;2.15;;;1.92;;
26838;SDS011;40088;51.214;6.786;2023-04-20T15:34:57;3.55;;;2.45;;
26838;SDS011;40088;51.214;6.786;2023-04-20T15:44:58;3.23;;;2.20;;
26838;SDS011;40088;51.214;6.786;2023-04-20T15:54:58;2.20;;;2.00;;
26838;SDS011;40088;51.214;6.786;2023-04-20T16:04:58;2.28;;;2.08;;
26838;SDS011;40088;51.214;6.786;2023-04-20T16:14:59;2.60;;;2.20;;
26838;SDS011;40088;51.214;6.786;2023-04-20T16:25:00;2.85;;;2.30;;
26838;SDS011;40088;51.214;6.786;2023-04-20T16:35:01;2.92;;;2.65;;
26838;SDS011;40088;51.214;6.786;2023-04-20T16:45:01;2.58;;;2.20;;
26838;SDS011;40088;51.214;6.786;2023-04-20T16:55:03;3.00;;;2.70;;
26838;SDS011;40088;51.214;6.786;2023-04-20T17:05:04;3.35;;;2.53;;
26838;SDS011;40088;51.214;6.786;2023-04-20T17:15:04;2.92;;;2.63;;
26838;SDS011;40088;51.214;6.786;2023-04-20T17:25:06;4.25;;;3.25;;
26838;SDS011;40088;51.214;6.786;2023-04-20T17:35:06;3.90;;;2.83;;
26838;SDS011;40088;51.214;6.786;2023-04-20T17:45:07;5.10;;;3.85;;
26838;SDS011;40088;51.214;6.786;2023-04-20T17:55:08;4.97;;;3.00;;
26838;SDS011;40088;51.214;6.786;2023-04-20T18:05:08;3.17;;;2.70;;
26838;SDS011;40088;51.214;6.786;2023-04-20T18:15:09;3.10;;;2.60;;
26838;SDS011;40088;51.214;6.786;2023-04-20T18:25:10;2.40;;;2.20;;
26838;SDS011;40088;51.214;6.786;2023-04-20T18:35:10;2.20;;;2.00;;
26838;SDS011;40088;51.214;6.786;2023-04-20T18:45:11;2.40;;;2.20;;
26838;SDS011;40088;51.214;6.786;2023-04-20T18:55:12;3.03;;;2.30;;
26838;SDS011;40088;51.214;6.786;2023-04-20T19:05:12;2.58;;;2.38;;
26838;SDS011;40088;51.214;6.786;2023-04-20T19:15:13;2.42;;;2.22;;
26838;SDS011;40088;51.214;6.786;2023-04-20T19:25:13;3.85;;;2.20;;
26838;SDS011;40088;51.214;6.786;2023-04-20T19:35:14;1.90;;;1.77;;
26838;SDS011;40088;51.214;6.786;2023-04-20T19:45:15;2.30;;;2.10;;
26838;SDS011;40088;51.214;6.786;2023-04-20T19:55:15;2.30;;;2.10;;
26838;SDS011;40088;51.214;6.786;2023-04-20T20:05:16;2.65;;;2.30;;
26838;SDS011;40088;51.214;6.786;2023-04-20T20:15:16;2.20;;;2.00;;
26838;SDS011;40088;51.214;6.786;2023-04-20T20:25:16;2.60;;;2.40;;
26838;SDS011;40088;51.214;6.786;2023-04-20T20:35:18;2.63;;;2.40;;
26838;SDS011;40088;51.214;6.786;2023-04-20T20:45:19;2.88;;;2.45;;
26838;SDS011;40088;51.214;6.786;2023-04-20T20:55:21;2.60;;;2.40;;
26838;SDS011;40088;51.214;6.786;2023-04-20T21:05:21;3.08;;;2.78;;
26838;SDS011;40088;51.214;6.786;2023-04-20T21:15:22;3.08;;;2.70;;
26838;SDS011;40088;51.214;6.786;2023-04-20T21:25:23;4.57;;;2.80;;
26838;SDS011;40088;51.214;6.786;2023-04-20T21:35:23;3.97;;;2.30;;
26838;SDS011;40088;51.214;6.786;2023-04-20T21:45:23;3.30;;;2.50;;
26838;SDS011;40088;51.214;6.786;2023-04-20T21:55:24;2.85;;;2.33;;
26838;SDS011;40088;51.214;6.786;2023-04-20T22:05:24;3.67;;;2.88;;
26838;SDS011;40088;51.214;6.786;2023-04-20T22:15:25;2.70;;;2.47;;
26838;SDS011;40088;51.214;6.786;2023-04-20T22:25:26;2.97;;;2.63;;
26838;SDS011;40088;51.214;6.786;2023-04-20T22:35:26;2.92;;;2.72;;
26838;SDS011;40088;51.214;6.786;2023-04-20T22:45:27;4.43;;;2.65;;
26838;SDS011;40088;51.214;6.786;2023-04-20T22:55:27;2.90;;;2.60;;
26838;SDS011;40088;51.214;6.786;2023-04-20T23:05:27;3.67;;;3.05;;
26838;SDS011;40088;51.214;6.786;2023-04-20T23:15:27;3.40;;;2.75;;
26838;SDS011;40088;51.214;6.786;2023-04-20T23:25:28;4.30;;;3.03;;
26838;SDS011;40088;51.214;6.786;2023-04-20T23:35:28;3.17;;;2.88;;
26838;SDS011;40088;51.214;6.786;2023-04-20T23:45:28;3.88;;;2.88;;
26838;SDS011;40088;51.214;6.786;2023-04-20T23:55:29;5.03;;;3.15;;
